createdAt,value
2017-01-22T00:00:47.557Z,0
2017-01-22T00:01:48.427Z,0
2017-01-22T00:02:49.164Z,0
2017-01-22T00:03:49.895Z,0
2017-01-22T00:04:50.679Z,0
2017-01-22T00:05:51.386Z,0
2017-01-22T00:06:52.130Z,0
2017-01-22T00:07:52.885Z,0
2017-01-22T00:08:53.638Z,0
2017-01-22T00:09:54.366Z,0
2017-01-22T00:10:55.092Z,0
2017-01-22T00:11:55.815Z,0
2017-01-22T00:12:56.507Z,0
2017-01-22T00:13:57.194Z,0
2017-01-22T00:14:57.882Z,0
2017-01-22T00:15:58.545Z,0
2017-01-22T00:16:59.227Z,0
2017-01-22T00:17:59.900Z,0
2017-01-22T00:19:00.633Z,0
2017-01-22T00:20:01.308Z,0
2017-01-22T00:21:01.974Z,0
2017-01-22T00:22:02.660Z,0
2017-01-22T00:23:03.403Z,0
2017-01-22T00:24:04.214Z,0
2017-01-22T00:25:04.887Z,0
2017-01-22T00:26:05.561Z,0
2017-01-22T00:27:06.235Z,0
2017-01-22T00:28:06.991Z,0
2017-01-22T00:29:07.708Z,0
2017-01-22T00:30:08.391Z,0
2017-01-22T00:31:09.074Z,0
2017-01-22T00:32:09.771Z,0
2017-01-22T00:33:10.454Z,0
2017-01-22T00:34:11.117Z,0
2017-01-22T00:35:11.807Z,0
2017-01-22T00:36:12.507Z,0
2017-01-22T00:37:13.182Z,0
2017-01-22T00:38:13.860Z,0
2017-01-22T00:39:14.539Z,0
2017-01-22T00:40:15.265Z,0
2017-01-22T00:41:15.942Z,0
2017-01-22T00:42:16.619Z,0
2017-01-22T00:43:17.322Z,0
2017-01-22T00:44:18.007Z,0
2017-01-22T00:45:18.694Z,0
2017-01-22T00:46:19.395Z,0
2017-01-22T00:47:20.108Z,0
2017-01-22T00:48:20.822Z,0
2017-01-22T00:49:21.490Z,0
2017-01-22T00:50:22.189Z,0
2017-01-22T00:51:22.886Z,0
2017-01-22T00:52:23.554Z,0
2017-01-22T00:53:24.233Z,0
2017-01-22T00:54:24.905Z,0
2017-01-22T00:55:25.588Z,0
2017-01-22T00:56:26.260Z,0
2017-01-22T00:57:26.929Z,0
2017-01-22T00:58:27.659Z,0
2017-01-22T00:59:28.330Z,0
2017-01-22T01:00:29.007Z,0
2017-01-22T01:01:29.678Z,0
2017-01-22T01:02:30.364Z,0
2017-01-22T01:03:31.044Z,0
2017-01-22T01:04:31.740Z,0
2017-01-22T01:05:32.564Z,0
2017-01-22T01:06:33.244Z,0
2017-01-22T01:07:33.919Z,0
2017-01-22T01:08:34.600Z,0
2017-01-22T01:09:35.270Z,0
2017-01-22T01:10:35.945Z,0
2017-01-22T01:11:36.655Z,0
2017-01-22T01:12:37.344Z,0
2017-01-22T01:13:38.042Z,0
2017-01-22T01:14:38.733Z,0
2017-01-22T01:15:39.443Z,0
2017-01-22T01:16:40.120Z,0
2017-01-22T01:17:40.793Z,0
2017-01-22T01:18:41.464Z,0
2017-01-22T01:19:42.139Z,0
2017-01-22T01:20:42.806Z,0
2017-01-22T01:21:43.513Z,0
2017-01-22T01:22:44.153Z,0
2017-01-22T01:23:44.828Z,0
2017-01-22T01:24:45.500Z,0
2017-01-22T01:25:46.177Z,0
2017-01-22T01:26:46.854Z,0
2017-01-22T01:27:47.525Z,0
2017-01-22T01:28:48.188Z,0
2017-01-22T01:29:48.874Z,0
2017-01-22T01:30:49.543Z,0
2017-01-22T01:31:50.222Z,0
2017-01-22T01:32:50.911Z,0
2017-01-22T01:33:51.569Z,0
2017-01-22T01:34:52.259Z,0
2017-01-22T01:35:52.967Z,0
2017-01-22T01:36:53.664Z,0
2017-01-22T01:37:55.593Z,0
2017-01-22T01:38:56.269Z,0
2017-01-22T01:39:56.934Z,0
2017-01-22T01:40:57.615Z,0
2017-01-22T01:41:58.298Z,0
2017-01-22T01:42:58.993Z,0
2017-01-22T01:43:59.676Z,0
2017-01-22T01:45:00.371Z,0
2017-01-22T01:46:01.056Z,0
2017-01-22T01:47:01.729Z,0
2017-01-22T01:48:02.404Z,0
2017-01-22T01:49:03.079Z,0
2017-01-22T01:50:03.786Z,0
2017-01-22T01:51:04.469Z,0
2017-01-22T01:52:05.160Z,0
2017-01-22T01:53:05.824Z,0
2017-01-22T01:54:06.501Z,0
2017-01-22T01:55:07.165Z,0
2017-01-22T01:56:07.851Z,0
2017-01-22T01:57:08.517Z,0
2017-01-22T01:58:09.180Z,0
2017-01-22T01:59:09.859Z,0
2017-01-22T02:00:10.569Z,0
2017-01-22T02:01:11.268Z,0
2017-01-22T02:02:11.936Z,0
2017-01-22T02:03:12.611Z,0
2017-01-22T02:04:13.322Z,0
2017-01-22T02:05:14.003Z,0
2017-01-22T02:06:14.672Z,0
2017-01-22T02:07:15.334Z,0
2017-01-22T02:08:16.013Z,0
2017-01-22T02:09:16.698Z,0
2017-01-22T02:10:17.363Z,0
2017-01-22T02:11:18.036Z,0
2017-01-22T02:12:18.702Z,0
2017-01-22T02:13:19.381Z,0
2017-01-22T02:14:20.052Z,0
2017-01-22T02:15:20.733Z,0
2017-01-22T02:16:21.430Z,0
2017-01-22T02:17:22.079Z,0
2017-01-22T02:18:25.556Z,0
2017-01-22T02:19:26.235Z,0
2017-01-22T02:20:26.908Z,0
2017-01-22T02:21:27.582Z,0
2017-01-22T02:22:28.260Z,0
2017-01-22T02:23:28.938Z,0
2017-01-22T02:24:29.597Z,0
2017-01-22T02:25:30.272Z,0
2017-01-22T02:26:30.950Z,0
2017-01-22T02:27:31.617Z,0
2017-01-22T02:28:32.284Z,0
2017-01-22T02:29:32.965Z,0
2017-01-22T02:30:33.632Z,0
2017-01-22T02:31:34.294Z,0
2017-01-22T02:32:34.973Z,0
2017-01-22T02:33:35.650Z,0
2017-01-22T02:34:36.322Z,0
2017-01-22T02:35:36.995Z,0
2017-01-22T02:36:37.668Z,0
2017-01-22T02:37:38.352Z,0
2017-01-22T02:38:39.004Z,0
2017-01-22T02:39:39.690Z,0
2017-01-22T02:40:40.375Z,0
2017-01-22T02:41:41.044Z,0
2017-01-22T02:42:41.693Z,0
2017-01-22T02:43:42.386Z,0
2017-01-22T02:44:43.068Z,0
2017-01-22T02:45:43.739Z,0
2017-01-22T02:46:44.414Z,0
2017-01-22T02:47:45.085Z,0
2017-01-22T02:48:45.756Z,0
2017-01-22T02:49:46.446Z,0
2017-01-22T02:50:47.092Z,0
2017-01-22T02:51:47.824Z,0
2017-01-22T02:52:48.495Z,0
2017-01-22T02:53:49.167Z,0
2017-01-22T02:54:49.841Z,0
2017-01-22T02:55:50.507Z,0
2017-01-22T02:56:51.184Z,0
2017-01-22T02:57:51.851Z,0
2017-01-22T02:58:52.520Z,0
2017-01-22T02:59:53.196Z,0
2017-01-22T03:00:53.872Z,0
2017-01-22T03:01:54.538Z,0
2017-01-22T03:02:55.214Z,0
2017-01-22T03:03:55.894Z,0
2017-01-22T03:04:56.597Z,0
2017-01-22T03:05:57.276Z,0
2017-01-22T03:06:57.962Z,0
2017-01-22T03:07:58.625Z,0
2017-01-22T03:08:59.310Z,0
2017-01-22T03:09:59.973Z,0
2017-01-22T03:11:00.684Z,0
2017-01-22T03:12:01.378Z,0
2017-01-22T03:13:02.036Z,0
2017-01-22T03:14:02.723Z,0
2017-01-22T03:15:03.396Z,0
2017-01-22T03:16:04.087Z,0
2017-01-22T03:17:04.771Z,0
2017-01-22T03:18:05.472Z,0
2017-01-22T03:19:06.197Z,0
2017-01-22T03:20:06.905Z,0
2017-01-22T03:21:07.585Z,0
2017-01-22T03:22:08.274Z,0
2017-01-22T03:23:08.954Z,0
2017-01-22T03:24:09.647Z,0
2017-01-22T03:25:10.340Z,0
2017-01-22T03:26:11.021Z,0
2017-01-22T03:27:11.699Z,0
2017-01-22T03:28:12.369Z,0
2017-01-22T03:29:13.047Z,0
2017-01-22T03:30:13.714Z,0
2017-01-22T03:31:14.386Z,0
2017-01-22T03:32:15.081Z,0
2017-01-22T03:33:15.757Z,0
2017-01-22T03:34:16.440Z,0
2017-01-22T03:35:17.108Z,0
2017-01-22T03:36:17.781Z,0
2017-01-22T03:37:18.448Z,0
2017-01-22T03:38:19.122Z,0
2017-01-22T03:39:19.787Z,0
2017-01-22T03:40:20.468Z,0
2017-01-22T03:41:21.141Z,0
2017-01-22T03:42:21.818Z,0
2017-01-22T03:43:22.504Z,0
2017-01-22T03:44:23.198Z,0
2017-01-22T03:45:23.857Z,0
2017-01-22T03:46:24.535Z,0
2017-01-22T03:47:25.203Z,0
2017-01-22T03:48:25.882Z,0
2017-01-22T03:49:26.554Z,0
2017-01-22T03:50:27.223Z,0
2017-01-22T03:51:27.898Z,0
2017-01-22T03:52:28.581Z,0
2017-01-22T03:53:29.253Z,0
2017-01-22T03:54:29.916Z,0
2017-01-22T03:55:30.611Z,0
2017-01-22T03:56:31.277Z,0
2017-01-22T03:57:31.955Z,0
2017-01-22T03:58:32.637Z,0
2017-01-22T03:59:33.302Z,0
2017-01-22T04:00:33.990Z,0
2017-01-22T04:01:34.666Z,0
2017-01-22T04:02:35.347Z,0
2017-01-22T04:03:36.019Z,0
2017-01-22T04:04:36.696Z,0
2017-01-22T04:05:37.371Z,0
2017-01-22T04:06:38.040Z,0
2017-01-22T04:07:38.717Z,0
2017-01-22T04:08:39.386Z,0
2017-01-22T04:09:40.061Z,0
2017-01-22T04:10:40.736Z,0
2017-01-22T04:11:41.407Z,0
2017-01-22T04:12:42.076Z,0
2017-01-22T04:13:42.766Z,0
2017-01-22T04:14:43.468Z,0
2017-01-22T04:15:44.144Z,0
2017-01-22T04:16:44.825Z,0
2017-01-22T04:17:45.507Z,0
2017-01-22T04:18:46.176Z,0
2017-01-22T04:19:46.839Z,0
2017-01-22T04:20:47.511Z,0
2017-01-22T04:21:48.182Z,0
2017-01-22T04:22:48.855Z,0
2017-01-22T04:23:49.533Z,0
2017-01-22T04:24:50.203Z,0
2017-01-22T04:25:50.871Z,0
2017-01-22T04:26:51.547Z,0
2017-01-22T04:27:52.205Z,0
2017-01-22T04:28:52.881Z,0
2017-01-22T04:29:53.554Z,0
2017-01-22T04:30:54.224Z,0
2017-01-22T04:31:54.896Z,0
2017-01-22T04:32:55.568Z,0
2017-01-22T04:33:56.257Z,0
2017-01-22T04:34:56.925Z,0
2017-01-22T04:35:57.615Z,0
2017-01-22T04:36:58.275Z,0
2017-01-22T04:37:58.937Z,0
2017-01-22T04:38:59.612Z,0
2017-01-22T04:40:00.290Z,0
2017-01-22T04:41:00.974Z,0
2017-01-22T04:42:01.654Z,0
2017-01-22T04:43:02.323Z,0
2017-01-22T04:44:03.001Z,0
2017-01-22T04:45:03.679Z,0
2017-01-22T04:46:04.352Z,0
2017-01-22T04:47:05.037Z,0
2017-01-22T04:48:05.713Z,0
2017-01-22T04:49:06.381Z,0
2017-01-22T04:50:07.052Z,0
2017-01-22T04:51:07.731Z,0
2017-01-22T04:52:08.453Z,0
2017-01-22T04:53:09.147Z,0
2017-01-22T04:54:09.804Z,0
2017-01-22T04:55:10.486Z,0
2017-01-22T04:56:11.181Z,0
2017-01-22T04:57:11.843Z,0
2017-01-22T04:58:12.519Z,0
2017-01-22T04:59:13.199Z,0
2017-01-22T05:00:13.893Z,0
2017-01-22T05:01:14.562Z,0
2017-01-22T05:02:15.236Z,0
2017-01-22T05:03:15.913Z,0
2017-01-22T05:04:16.583Z,0
2017-01-22T05:05:17.252Z,0
2017-01-22T05:06:17.935Z,0
2017-01-22T05:07:18.606Z,0
2017-01-22T05:08:19.285Z,0
2017-01-22T05:09:19.954Z,0
2017-01-22T05:10:20.651Z,0
2017-01-22T05:11:21.347Z,0
2017-01-22T05:12:22.018Z,0
2017-01-22T05:13:22.694Z,0
2017-01-22T05:14:23.372Z,0
2017-01-22T05:15:24.062Z,0
2017-01-22T05:16:24.734Z,0
2017-01-22T05:17:25.402Z,0
2017-01-22T05:18:26.081Z,0
2017-01-22T05:19:26.771Z,0
2017-01-22T05:20:27.448Z,0
2017-01-22T05:21:28.119Z,0
2017-01-22T05:22:28.795Z,0
2017-01-22T05:23:29.482Z,0
2017-01-22T05:24:30.183Z,0
2017-01-22T05:25:30.848Z,0
2017-01-22T05:26:31.536Z,0
2017-01-22T05:27:32.216Z,0
2017-01-22T05:28:32.887Z,0
2017-01-22T05:29:33.551Z,0
2017-01-22T05:30:34.237Z,0
2017-01-22T05:31:34.917Z,0
2017-01-22T05:32:35.591Z,0
2017-01-22T05:33:36.255Z,0
2017-01-22T05:34:36.927Z,0
2017-01-22T05:35:37.634Z,0
2017-01-22T05:36:38.312Z,0
2017-01-22T05:37:38.987Z,0
2017-01-22T05:38:39.676Z,0
2017-01-22T05:39:40.350Z,0
2017-01-22T05:40:41.019Z,0
2017-01-22T05:41:41.709Z,0
2017-01-22T05:42:42.370Z,0
2017-01-22T05:43:43.046Z,0
2017-01-22T05:44:43.719Z,0
2017-01-22T05:45:44.419Z,0
2017-01-22T05:46:45.097Z,0
2017-01-22T05:47:45.777Z,0
2017-01-22T05:48:46.467Z,0
2017-01-22T05:49:47.150Z,0
2017-01-22T05:50:47.836Z,0
2017-01-22T05:51:48.534Z,0
2017-01-22T05:52:49.212Z,0
2017-01-22T05:53:49.884Z,0
2017-01-22T05:54:50.569Z,0
2017-01-22T05:55:51.248Z,0
2017-01-22T05:56:51.914Z,0
2017-01-22T05:57:52.592Z,0
2017-01-22T05:58:53.278Z,0
2017-01-22T05:59:53.955Z,0
2017-01-22T06:00:54.623Z,0
2017-01-22T06:01:55.293Z,0
2017-01-22T06:02:55.955Z,0
2017-01-22T06:03:56.636Z,0
2017-01-22T06:04:57.305Z,0
2017-01-22T06:05:57.983Z,0
2017-01-22T06:06:58.648Z,0
2017-01-22T06:07:59.329Z,0
2017-01-22T06:09:00.011Z,0
2017-01-22T06:10:00.748Z,0
2017-01-22T06:11:01.427Z,0
2017-01-22T06:12:02.124Z,0
2017-01-22T06:13:02.788Z,0
2017-01-22T06:14:03.472Z,0
2017-01-22T06:15:04.155Z,0
2017-01-22T06:16:04.822Z,0
2017-01-22T06:17:05.507Z,0
2017-01-22T06:18:06.194Z,0
2017-01-22T06:19:06.869Z,0
2017-01-22T06:20:07.557Z,0
2017-01-22T06:21:08.247Z,0
2017-01-22T06:22:08.949Z,0
2017-01-22T06:23:09.621Z,0
2017-01-22T06:24:10.288Z,0
2017-01-22T06:25:10.963Z,0
2017-01-22T06:26:11.634Z,0
2017-01-22T06:27:12.315Z,0
2017-01-22T06:28:12.988Z,0
2017-01-22T06:29:13.651Z,0
2017-01-22T06:30:14.340Z,0
2017-01-22T06:31:15.020Z,0
2017-01-22T06:32:15.689Z,0
2017-01-22T06:33:16.359Z,0
2017-01-22T06:34:17.045Z,0
2017-01-22T06:35:17.762Z,0
2017-01-22T06:36:18.416Z,0
2017-01-22T06:37:19.091Z,0
2017-01-22T06:38:19.768Z,0
2017-01-22T06:39:20.440Z,0
2017-01-22T06:40:21.114Z,0
2017-01-22T06:41:21.773Z,0
2017-01-22T06:42:22.447Z,0
2017-01-22T06:43:23.122Z,0
2017-01-22T06:44:23.796Z,0
2017-01-22T06:45:24.487Z,0
2017-01-22T06:46:25.155Z,0
2017-01-22T06:47:25.840Z,0
2017-01-22T06:48:26.510Z,0
2017-01-22T06:49:27.257Z,0
2017-01-22T06:50:27.891Z,0
2017-01-22T06:51:28.576Z,0
2017-01-22T06:52:29.250Z,0
2017-01-22T06:53:29.942Z,0
2017-01-22T06:54:30.599Z,0
2017-01-22T06:55:31.277Z,0
2017-01-22T06:56:31.950Z,0
2017-01-22T06:57:32.623Z,0
2017-01-22T06:58:33.296Z,0
2017-01-22T06:59:33.994Z,0
2017-01-22T07:00:34.655Z,0
2017-01-22T07:01:35.335Z,0
2017-01-22T07:02:36.008Z,0
2017-01-22T07:03:36.691Z,0
2017-01-22T07:04:37.373Z,0
2017-01-22T07:05:38.049Z,0
2017-01-22T07:06:38.735Z,0
2017-01-22T07:07:39.401Z,0
2017-01-22T07:08:40.100Z,0
2017-01-22T07:09:40.751Z,0
2017-01-22T07:10:41.416Z,0
2017-01-22T07:11:42.095Z,0
2017-01-22T07:12:42.766Z,0
2017-01-22T07:13:43.454Z,0
2017-01-22T07:14:44.131Z,0
2017-01-22T07:15:44.832Z,0
2017-01-22T07:16:45.504Z,0
2017-01-22T07:17:46.177Z,0
2017-01-22T07:18:46.852Z,0
2017-01-22T07:19:47.513Z,0
2017-01-22T07:20:48.187Z,0
2017-01-22T07:21:48.859Z,0
2017-01-22T07:22:49.558Z,0
2017-01-22T07:23:50.208Z,0
2017-01-22T07:24:50.879Z,5
2017-01-22T07:25:51.559Z,5
2017-01-22T07:26:52.244Z,5
2017-01-22T07:27:52.924Z,5
2017-01-22T07:28:53.600Z,5
2017-01-22T07:29:54.280Z,5
2017-01-22T07:30:54.958Z,5
2017-01-22T07:31:55.667Z,5
2017-01-22T07:32:56.342Z,5
2017-01-22T07:33:57.022Z,5
2017-01-22T07:34:57.706Z,5
2017-01-22T07:35:58.385Z,5
2017-01-22T07:36:59.066Z,5
2017-01-22T07:37:59.743Z,5
2017-01-22T07:39:00.417Z,5
2017-01-22T07:40:01.096Z,10
2017-01-22T07:41:01.757Z,10
2017-01-22T07:42:02.520Z,10
2017-01-22T07:43:03.203Z,10
2017-01-22T07:44:03.880Z,10
2017-01-22T07:45:04.562Z,10
2017-01-22T07:46:05.267Z,10
2017-01-22T07:47:05.943Z,10
2017-01-22T07:48:06.619Z,10
2017-01-22T07:49:07.297Z,10
2017-01-22T07:50:07.968Z,10
2017-01-22T07:51:08.653Z,15
2017-01-22T07:52:09.319Z,15
2017-01-22T07:53:09.989Z,15
2017-01-22T07:54:10.661Z,15
2017-01-22T07:55:11.335Z,15
2017-01-22T07:56:12.006Z,20
2017-01-22T07:57:12.703Z,20
2017-01-22T07:58:13.379Z,20
2017-01-22T07:59:14.063Z,20
2017-01-22T08:00:14.740Z,20
2017-01-22T08:01:15.400Z,20
2017-01-22T08:02:16.130Z,20
2017-01-22T08:03:16.802Z,25
2017-01-22T08:04:17.485Z,25
2017-01-22T08:05:18.155Z,25
2017-01-22T08:06:18.821Z,25
2017-01-22T08:07:19.504Z,25
2017-01-22T08:08:20.179Z,25
2017-01-22T08:09:20.846Z,25
2017-01-22T08:10:21.525Z,25
2017-01-22T08:11:22.252Z,25
2017-01-22T08:12:22.911Z,25
2017-01-22T08:13:23.580Z,30
2017-01-22T08:14:24.256Z,30
2017-01-22T08:15:24.928Z,30
2017-01-22T08:16:25.602Z,30
2017-01-22T08:17:26.294Z,30
2017-01-22T08:18:26.965Z,30
2017-01-22T08:19:27.635Z,35
2017-01-22T08:20:28.310Z,35
2017-01-22T08:21:28.981Z,35
2017-01-22T08:22:29.650Z,35
2017-01-22T08:23:30.328Z,35
2017-01-22T08:24:30.997Z,35
2017-01-22T08:25:31.670Z,40
2017-01-22T08:26:32.339Z,40
2017-01-22T08:27:33.031Z,40
2017-01-22T08:28:33.723Z,40
2017-01-22T08:29:34.400Z,40
2017-01-22T08:30:35.084Z,40
2017-01-22T08:31:35.760Z,40
2017-01-22T08:32:36.429Z,45
2017-01-22T08:33:37.116Z,50
2017-01-22T08:34:37.776Z,50
2017-01-22T08:35:38.482Z,50
2017-01-22T08:36:39.159Z,55
2017-01-22T08:37:39.849Z,55
2017-01-22T08:38:40.521Z,55
2017-01-22T08:39:41.211Z,60
2017-01-22T08:40:41.919Z,60
2017-01-22T08:41:42.612Z,65
2017-01-22T08:42:43.311Z,60
2017-01-22T08:43:43.988Z,60
2017-01-22T08:44:44.684Z,60
2017-01-22T08:45:45.388Z,65
2017-01-22T08:46:46.147Z,75
2017-01-22T08:47:46.815Z,75
2017-01-22T08:48:47.496Z,75
2017-01-22T08:49:48.186Z,75
2017-01-22T08:50:48.871Z,75
2017-01-22T08:51:49.556Z,70
2017-01-22T08:52:50.233Z,70
2017-01-22T08:53:50.946Z,70
2017-01-22T08:54:51.638Z,75
2017-01-22T08:55:52.315Z,80
2017-01-22T08:56:52.984Z,85
2017-01-22T08:57:53.652Z,85
2017-01-22T08:58:54.342Z,95
2017-01-22T08:59:55.023Z,95
2017-01-22T09:00:55.692Z,100
2017-01-22T09:01:56.512Z,105
2017-01-22T09:02:57.202Z,120
2017-01-22T09:03:57.885Z,115
2017-01-22T09:04:58.616Z,100
2017-01-22T09:05:59.325Z,105
2017-01-22T09:06:59.982Z,115
2017-01-22T09:08:00.704Z,115
2017-01-22T09:09:01.373Z,110
2017-01-22T09:10:02.099Z,110
2017-01-22T09:11:02.796Z,110
2017-01-22T09:12:03.470Z,120
2017-01-22T09:13:04.213Z,120
2017-01-22T09:14:04.871Z,120
2017-01-22T09:15:05.590Z,135
2017-01-22T09:16:06.294Z,150
2017-01-22T09:17:07.027Z,140
2017-01-22T09:18:07.761Z,140
2017-01-22T09:19:08.470Z,150
2017-01-22T09:20:09.155Z,150
2017-01-22T09:21:09.854Z,145
2017-01-22T09:22:10.562Z,135
2017-01-22T09:23:11.281Z,140
2017-01-22T09:24:12.019Z,150
2017-01-22T09:25:12.709Z,135
2017-01-22T09:26:13.409Z,125
2017-01-22T09:27:14.109Z,135
2017-01-22T09:28:14.821Z,150
2017-01-22T09:29:15.561Z,155
2017-01-22T09:30:16.452Z,175
2017-01-22T09:31:17.189Z,185
2017-01-22T09:32:17.904Z,180
2017-01-22T09:33:18.623Z,165
2017-01-22T09:34:19.347Z,170
2017-01-22T09:35:20.039Z,180
2017-01-22T09:36:20.740Z,190
2017-01-22T09:37:21.515Z,180
2017-01-22T09:38:22.234Z,175
2017-01-22T09:39:22.951Z,175
2017-01-22T09:40:23.685Z,155
2017-01-22T09:41:24.372Z,145
2017-01-22T09:42:25.077Z,145
2017-01-22T09:43:25.918Z,150
2017-01-22T09:44:26.569Z,155
2017-01-22T09:45:27.320Z,155
2017-01-22T09:46:28.078Z,155
2017-01-22T09:47:28.776Z,155
2017-01-22T09:48:29.473Z,155
2017-01-22T09:49:30.220Z,155
2017-01-22T09:50:30.928Z,150
2017-01-22T09:51:31.612Z,150
2017-01-22T09:52:33.189Z,150
2017-01-22T09:53:33.970Z,160
2017-01-22T09:54:34.711Z,165
2017-01-22T09:55:35.416Z,175
2017-01-22T09:56:36.144Z,180
2017-01-22T09:57:37.002Z,180
2017-01-22T09:58:38.095Z,185
2017-01-22T09:59:38.939Z,190
2017-01-22T10:00:39.667Z,190
2017-01-22T10:01:40.386Z,185
2017-01-22T10:02:41.110Z,185
2017-01-22T10:03:41.846Z,190
2017-01-22T10:04:42.563Z,180
2017-01-22T10:05:43.286Z,180
2017-01-22T10:06:44.041Z,185
2017-01-22T10:07:44.735Z,170
2017-01-22T10:08:45.521Z,170
2017-01-22T10:09:46.234Z,165
2017-01-22T10:10:46.944Z,170
2017-01-22T10:11:47.653Z,175
2017-01-22T10:12:48.465Z,180
2017-01-22T10:13:49.151Z,185
2017-01-22T10:14:49.845Z,200
2017-01-22T10:15:50.598Z,210
2017-01-22T10:16:51.275Z,220
2017-01-22T10:17:52.002Z,225
2017-01-22T10:18:52.719Z,230
2017-01-22T10:19:53.620Z,230
2017-01-22T10:20:54.329Z,240
2017-01-22T10:21:55.086Z,235
2017-01-22T10:22:55.820Z,235
2017-01-22T10:23:56.592Z,240
2017-01-22T10:24:57.272Z,250
2017-01-22T10:25:57.982Z,255
2017-01-22T10:26:58.723Z,265
2017-01-22T10:27:59.429Z,270
2017-01-22T10:29:00.160Z,240
2017-01-22T10:30:00.900Z,195
2017-01-22T10:31:01.599Z,195
2017-01-22T10:32:02.284Z,200
2017-01-22T10:33:03.047Z,205
2017-01-22T10:34:03.793Z,200
2017-01-22T10:35:04.518Z,200
2017-01-22T10:36:05.204Z,195
2017-01-22T10:37:05.881Z,190
2017-01-22T10:38:06.662Z,190
2017-01-22T10:39:07.334Z,195
2017-01-22T10:40:08.047Z,195
2017-01-22T10:41:08.745Z,210
2017-01-22T10:42:09.487Z,225
2017-01-22T10:43:10.215Z,230
2017-01-22T10:44:10.897Z,235
2017-01-22T10:45:11.616Z,230
2017-01-22T10:46:12.427Z,230
2017-01-22T10:47:13.110Z,230
2017-01-22T10:48:13.827Z,230
2017-01-22T10:49:14.549Z,220
2017-01-22T10:50:15.301Z,220
2017-01-22T10:51:16.009Z,230
2017-01-22T10:52:16.708Z,240
2017-01-22T10:53:17.445Z,235
2017-01-22T10:54:18.172Z,260
2017-01-22T10:55:18.856Z,285
2017-01-22T10:56:19.535Z,290
2017-01-22T10:57:20.239Z,275
2017-01-22T10:58:20.933Z,260
2017-01-22T10:59:21.643Z,270
2017-01-22T11:00:22.322Z,290
2017-01-22T11:01:23.020Z,315
2017-01-22T11:02:23.704Z,325
2017-01-22T11:03:24.386Z,325
2017-01-22T11:04:25.071Z,280
2017-01-22T11:05:25.796Z,275
2017-01-22T11:06:26.492Z,275
2017-01-22T11:07:27.194Z,255
2017-01-22T11:08:27.864Z,260
2017-01-22T11:09:28.554Z,265
2017-01-22T11:10:29.238Z,260
2017-01-22T11:11:29.922Z,260
2017-01-22T11:12:30.606Z,265
2017-01-22T11:13:31.313Z,260
2017-01-22T11:14:31.999Z,240
2017-01-22T11:15:32.700Z,235
2017-01-22T11:16:33.380Z,235
2017-01-22T11:17:34.058Z,245
2017-01-22T11:18:34.770Z,255
2017-01-22T11:19:35.479Z,260
2017-01-22T11:20:36.171Z,275
2017-01-22T11:21:36.874Z,270
2017-01-22T11:22:37.552Z,265
2017-01-22T11:23:38.237Z,250
2017-01-22T11:24:38.907Z,240
2017-01-22T11:25:39.609Z,235
2017-01-22T11:26:40.289Z,230
2017-01-22T11:27:40.964Z,230
2017-01-22T11:28:41.648Z,225
2017-01-22T11:29:42.323Z,220
2017-01-22T11:30:43.040Z,230
2017-01-22T11:31:43.721Z,225
2017-01-22T11:32:44.408Z,215
2017-01-22T11:33:45.085Z,215
2017-01-22T11:34:45.775Z,220
2017-01-22T11:35:46.460Z,225
2017-01-22T11:36:47.143Z,235
2017-01-22T11:37:47.817Z,240
2017-01-22T11:38:48.507Z,255
2017-01-22T11:39:49.191Z,270
2017-01-22T11:40:49.891Z,285
2017-01-22T11:41:50.565Z,310
2017-01-22T11:42:51.236Z,320
2017-01-22T11:43:51.906Z,305
2017-01-22T11:44:52.583Z,290
2017-01-22T11:45:53.252Z,285
2017-01-22T11:46:53.955Z,290
2017-01-22T11:47:54.623Z,290
2017-01-22T11:48:55.297Z,280
2017-01-22T11:49:55.992Z,280
2017-01-22T11:50:56.666Z,270
2017-01-22T11:51:57.354Z,270
2017-01-22T11:52:58.035Z,245
2017-01-22T11:53:58.720Z,240
2017-01-22T11:54:59.400Z,240
2017-01-22T11:56:00.077Z,240
2017-01-22T11:57:00.748Z,240
2017-01-22T11:58:01.422Z,235
2017-01-22T11:59:02.116Z,225
2017-01-22T12:00:02.821Z,215
2017-01-22T12:01:03.504Z,215
2017-01-22T12:02:04.194Z,235
2017-01-22T12:03:04.915Z,260
2017-01-22T12:04:05.594Z,260
2017-01-22T12:05:06.278Z,255
2017-01-22T12:06:06.970Z,240
2017-01-22T12:07:07.641Z,225
2017-01-22T12:08:08.313Z,220
2017-01-22T12:09:08.981Z,210
2017-01-22T12:10:09.651Z,210
2017-01-22T12:11:10.329Z,205
2017-01-22T12:12:11.007Z,205
2017-01-22T12:13:11.682Z,200
2017-01-22T12:14:12.361Z,200
2017-01-22T12:15:13.048Z,200
2017-01-22T12:16:13.725Z,210
2017-01-22T12:17:14.408Z,200
2017-01-22T12:18:15.085Z,195
2017-01-22T12:19:15.791Z,195
2017-01-22T12:20:16.486Z,190
2017-01-22T12:21:17.165Z,190
2017-01-22T12:22:17.857Z,180
2017-01-22T12:23:18.558Z,185
2017-01-22T12:24:19.241Z,195
2017-01-22T12:25:19.926Z,195
2017-01-22T12:26:20.602Z,195
2017-01-22T12:27:21.287Z,200
2017-01-22T12:28:21.986Z,200
2017-01-22T12:29:22.674Z,200
2017-01-22T12:30:23.353Z,200
2017-01-22T12:31:24.027Z,205
2017-01-22T12:32:24.709Z,205
2017-01-22T12:33:25.432Z,200
2017-01-22T12:34:26.142Z,200
2017-01-22T12:35:26.820Z,200
2017-01-22T12:36:27.501Z,200
2017-01-22T12:37:28.185Z,200
2017-01-22T12:38:28.872Z,205
2017-01-22T12:39:29.559Z,210
2017-01-22T12:40:30.233Z,220
2017-01-22T12:41:30.899Z,210
2017-01-22T12:42:31.571Z,210
2017-01-22T12:43:32.295Z,200
2017-01-22T12:44:33.032Z,195
2017-01-22T12:45:33.709Z,195
2017-01-22T12:46:34.383Z,195
2017-01-22T12:47:35.052Z,190
2017-01-22T12:48:35.732Z,195
2017-01-22T12:49:36.401Z,210
2017-01-22T12:50:37.088Z,230
2017-01-22T12:51:37.763Z,240
2017-01-22T12:52:38.461Z,230
2017-01-22T12:53:39.161Z,225
2017-01-22T12:54:39.861Z,230
2017-01-22T12:55:40.543Z,225
2017-01-22T12:56:41.248Z,225
2017-01-22T12:57:41.951Z,225
2017-01-22T12:58:42.632Z,225
2017-01-22T12:59:43.323Z,235
2017-01-22T13:00:44.002Z,220
2017-01-22T13:01:44.695Z,230
2017-01-22T13:02:45.390Z,225
2017-01-22T13:03:46.072Z,210
2017-01-22T13:04:46.725Z,210
2017-01-22T13:05:47.407Z,215
2017-01-22T13:06:48.076Z,205
2017-01-22T13:07:48.755Z,195
2017-01-22T13:08:49.429Z,195
2017-01-22T13:09:50.101Z,200
2017-01-22T13:10:50.801Z,200
2017-01-22T13:11:51.482Z,205
2017-01-22T13:12:52.194Z,210
2017-01-22T13:13:52.867Z,200
2017-01-22T13:14:53.549Z,195
2017-01-22T13:15:54.218Z,200
2017-01-22T13:16:54.897Z,200
2017-01-22T13:17:55.589Z,185
2017-01-22T13:18:56.265Z,195
2017-01-22T13:19:56.940Z,195
2017-01-22T13:20:57.628Z,185
2017-01-22T13:21:58.314Z,185
2017-01-22T13:22:59.055Z,190
2017-01-22T13:23:59.727Z,185
2017-01-22T13:25:00.418Z,180
2017-01-22T13:26:01.244Z,180
2017-01-22T13:27:01.921Z,180
2017-01-22T13:28:02.609Z,175
2017-01-22T13:29:03.294Z,175
2017-01-22T13:30:03.980Z,180
2017-01-22T13:31:04.669Z,180
2017-01-22T13:32:05.354Z,180
2017-01-22T13:33:06.039Z,175
2017-01-22T13:34:06.739Z,170
2017-01-22T13:35:07.416Z,170
2017-01-22T13:36:08.098Z,165
2017-01-22T13:37:08.782Z,160
2017-01-22T13:38:09.456Z,155
2017-01-22T13:39:10.147Z,145
2017-01-22T13:40:10.826Z,140
2017-01-22T13:41:11.520Z,135
2017-01-22T13:42:12.221Z,135
2017-01-22T13:43:12.902Z,130
2017-01-22T13:44:13.589Z,130
2017-01-22T13:45:14.284Z,125
2017-01-22T13:46:14.975Z,125
2017-01-22T13:47:15.696Z,125
2017-01-22T13:48:16.402Z,125
2017-01-22T13:49:17.086Z,125
2017-01-22T13:50:17.761Z,125
2017-01-22T13:51:18.431Z,135
2017-01-22T13:52:19.113Z,140
2017-01-22T13:53:19.782Z,135
2017-01-22T13:54:20.492Z,135
2017-01-22T13:55:21.143Z,125
2017-01-22T13:56:21.841Z,130
2017-01-22T13:57:22.567Z,135
2017-01-22T13:58:23.247Z,125
2017-01-22T13:59:23.935Z,125
2017-01-22T14:00:24.629Z,125
2017-01-22T14:01:25.314Z,120
2017-01-22T14:02:25.968Z,125
2017-01-22T14:03:26.675Z,125
2017-01-22T14:04:27.339Z,130
2017-01-22T14:05:28.040Z,130
2017-01-22T14:06:28.724Z,125
2017-01-22T14:07:29.406Z,125
2017-01-22T14:08:30.104Z,125
2017-01-22T14:09:30.773Z,120
2017-01-22T14:10:31.451Z,120
2017-01-22T14:11:32.133Z,125
2017-01-22T14:12:32.815Z,125
2017-01-22T14:13:33.499Z,120
2017-01-22T14:14:34.176Z,115
2017-01-22T14:15:34.865Z,110
2017-01-22T14:16:35.546Z,110
2017-01-22T14:17:36.238Z,105
2017-01-22T14:18:36.910Z,100
2017-01-22T14:19:37.607Z,100
2017-01-22T14:20:38.293Z,95
2017-01-22T14:21:38.973Z,95
2017-01-22T14:22:39.655Z,90
2017-01-22T14:23:40.343Z,85
2017-01-22T14:24:41.035Z,85
2017-01-22T14:25:41.717Z,85
2017-01-22T14:26:42.458Z,85
2017-01-22T14:27:43.147Z,80
2017-01-22T14:28:43.830Z,75
2017-01-22T14:29:44.516Z,75
2017-01-22T14:30:45.231Z,80